SKCL/CLO METAR and TAF weather

Enter ICAO airport designator
Station Type Date Time Source
SKCL METAR 2020/01/23 21:00 UTC NOAA

SKCL 232100Z 26007KT 9999 FEWW040 BKN150 29/19 A2991 NOSIG


Station Type Date Time Source
SKCL Decoded METAR 2020/01/23 21:00 UTC NOAA

Cali / Alfonso Bonillaaragon, Colombia (SKCL) 03-33N 076-23W 969M
Jan 23, 2020 - 04:00 PM EST / 2020.01.23 2100 UTC
Wind: from the W (260 degrees) at 8 MPH (7 KT):0
Visibility: greater than 7 mile(s):0
Sky conditions: mostly cloudy
Temperature: 84 F (29 C)
Dew Point: 66 F (19 C)
Relative Humidity: 54%
Pressure (altimeter): 29.91 in. Hg (1012 hPa)
ob: SKCL 232100Z 26007KT 9999 FEWW040 BKN150 29/19 A2991 NOSIG
cycle: 21

Station Type Date Time Source
SKCL TAF 2020/01/23 18:54 UTC NOAA

TAF SKCL 231630Z 2318/2418 35008KT 9999 SCT020 SCT250
TEMPO 2320/2323 SCT018TCU
BECMG 2323/2401 04004KT FEW017 BKN250
TEMPO 2410/2414 7000 VCFG TX32/2319Z TN19/2411Z

Example: see airport list